Time;durP1;ratioP1;P1;durP2;ratioP2;P2;SDS_P1;SDS_P2;PMS_P1;PMS_P2;Temp;Humidity;BMP_temperature;BMP_pressure;BME280_temperature;BME280_humidity;BME280_pressure;Samples;Min_cycle;Max_cycle;Signal;HPM_P1;HPM_P2
2023/05/02 00:01:46;;;;;;;0.13;0.13;;;;;;;;;;5105308;28;20263;-76
2023/05/02 00:04:12;;;;;;;0.10;0.10;;;;;;;;;;5106980;28;20400;-76
2023/05/02 00:06:41;;;;;;;0.10;0.10;;;;;;;;;;5104892;28;20238;-76
2023/05/02 00:09:08;;;;;;;0.10;0.10;;;;;;;;;;5107169;28;20199;-76
2023/05/02 00:11:34;;;;;;;0.10;0.10;;;;;;;;;;5104348;28;20445;-76
2023/05/02 00:14:02;;;;;;;0.10;0.10;;;;;;;;;;5107960;28;20206;-76
2023/05/02 00:16:28;;;;;;;0.10;0.10;;;;;;;;;;5103477;28;20442;-76
2023/05/02 00:18:55;;;;;;;0.10;0.10;;;;;;;;;;5108633;28;20261;-76
2023/05/02 00:21:21;;;;;;;0.20;0.20;;;;;;;;;;5102453;28;20240;-76
2023/05/02 00:23:47;;;;;;;0.10;0.10;;;;;;;;;;5110026;28;20235;-76
2023/05/02 00:26:14;;;;;;;0.10;0.10;;;;;;;;;;5105685;28;20277;-76
2023/05/02 00:28:40;;;;;;;0.10;0.10;;;;;;;;;;5114310;28;20230;-76
2023/05/02 00:31:08;;;;;;;0.20;0.20;;;;;;;;;;5104442;28;20248;-76
2023/05/02 00:33:34;;;;;;;0.30;0.30;;;;;;;;;;5115001;28;20207;-76
2023/05/02 00:36:01;;;;;;;0.10;0.10;;;;;;;;;;5103558;28;20235;-76
2023/05/02 00:38:27;;;;;;;0.10;0.10;;;;;;;;;;5115358;28;20259;-76
2023/05/02 00:40:53;;;;;;;0.10;0.10;;;;;;;;;;5102717;28;20459;-76
2023/05/02 00:43:20;;;;;;;0.10;0.10;;;;;;;;;;5116629;28;20206;-76
2023/05/02 00:45:46;;;;;;;0.10;0.10;;;;;;;;;;5101570;28;20235;-77
2023/05/02 00:48:16;;;;;;;0.10;0.10;;;;;;;;;;5117449;28;20243;-77
2023/05/02 00:50:43;;;;;;;0.10;0.10;;;;;;;;;;5100765;28;20452;-76
2023/05/02 00:53:10;;;;;;;0.10;0.10;;;;;;;;;;5117938;28;20387;-76
2023/05/02 00:55:36;;;;;;;0.17;0.17;;;;;;;;;;5099933;28;20461;-76
2023/05/02 00:58:05;;;;;;;0.10;0.10;;;;;;;;;;5118656;28;20474;-76
2023/05/02 01:00:36;;;;;;;0.10;0.10;;;;;;;;;;5099009;28;20240;-76
2023/05/02 01:03:07;;;;;;;0.17;0.17;;;;;;;;;;5118698;28;20373;-76
2023/05/02 01:05:38;;;;;;;0.43;0.43;;;;;;;;;;5099302;28;20261;-76
2023/05/02 01:08:10;;;;;;;0.23;0.23;;;;;;;;;;5118127;28;20226;-76
2023/05/02 01:10:41;;;;;;;0.10;0.10;;;;;;;;;;5099587;28;20246;-76
2023/05/02 01:13:11;;;;;;;0.10;0.10;;;;;;;;;;5117549;28;20216;-76
2023/05/02 01:15:38;;;;;;;0.10;0.10;;;;;;;;;;5099705;28;20244;-76
2023/05/02 01:18:06;;;;;;;0.10;0.10;;;;;;;;;;5118112;28;20440;-76
2023/05/02 01:20:37;;;;;;;0.10;0.10;;;;;;;;;;5098831;28;20239;-76
2023/05/02 01:23:09;;;;;;;0.10;0.10;;;;;;;;;;5118163;28;20304;-76
2023/05/02 01:25:41;;;;;;;0.10;0.10;;;;;;;;;;5099479;28;20240;-76
2023/05/02 01:28:13;;;;;;;0.10;0.10;;;;;;;;;;5117558;28;20368;-76
2023/05/02 01:30:42;;;;;;;15.10;6.23;;;;;;;;;;5099897;28;20514;-76
2023/05/02 01:33:11;;;;;;;0.10;0.10;;;;;;;;;;5117398;28;20245;-76
2023/05/02 01:35:38;;;;;;;0.20;0.20;;;;;;;;;;5099315;28;20253;-76
2023/05/02 01:38:05;;;;;;;0.10;0.10;;;;;;;;;;5117459;28;20472;-76
2023/05/02 01:40:34;;;;;;;0.10;0.10;;;;;;;;;;5098366;28;20253;-76
2023/05/02 01:43:03;;;;;;;0.43;0.43;;;;;;;;;;5118080;28;20205;-77
2023/05/02 01:45:30;;;;;;;0.10;0.10;;;;;;;;;;5098246;28;20250;-77
2023/05/02 01:47:58;;;;;;;0.10;0.10;;;;;;;;;;5118620;28;20276;-76
2023/05/02 01:50:25;;;;;;;0.10;0.10;;;;;;;;;;5097365;28;20231;-76
2023/05/02 01:52:53;;;;;;;0.33;0.33;;;;;;;;;;5104228;28;20526;-76
2023/05/02 01:55:20;;;;;;;0.10;0.10;;;;;;;;;;5096699;28;20463;-76
2023/05/02 01:57:47;;;;;;;0.10;0.10;;;;;;;;;;5119549;28;20299;-76
2023/05/02 02:00:13;;;;;;;0.10;0.10;;;;;;;;;;5095440;28;20231;-76
2023/05/02 02:02:41;;;;;;;0.10;0.10;;;;;;;;;;5120251;28;20234;-76
2023/05/02 02:05:10;;;;;;;0.10;0.10;;;;;;;;;;5105079;28;20203;-77
2023/05/02 02:07:37;;;;;;;0.10;0.10;;;;;;;;;;5093630;28;20208;-77
2023/05/02 02:10:03;;;;;;;0.20;0.20;;;;;;;;;;5105398;28;20202;-76
2023/05/02 02:12:32;;;;;;;0.10;0.10;;;;;;;;;;5110495;28;20246;-76
2023/05/02 02:15:00;;;;;;;0.10;0.10;;;;;;;;;;5105027;28;20242;-76
2023/05/02 02:17:30;;;;;;;0.10;0.10;;;;;;;;;;5110504;28;20249;-76
2023/05/02 02:19:57;;;;;;;0.10;0.10;;;;;;;;;;5104805;28;20297;-76
2023/05/02 02:22:26;;;;;;;0.10;0.10;;;;;;;;;;5110408;28;20261;-76
2023/05/02 02:24:53;;;;;;;0.10;0.10;;;;;;;;;;5105119;28;20237;-76
2023/05/02 02:27:20;;;;;;;1.70;1.70;;;;;;;;;;5110262;28;20248;-76
2023/05/02 02:29:46;;;;;;;0.10;0.10;;;;;;;;;;5104994;28;20200;-76
2023/05/02 02:32:13;;;;;;;0.30;0.30;;;;;;;;;;5110194;28;20248;-76
2023/05/02 02:34:39;;;;;;;0.10;0.10;;;;;;;;;;5104644;28;20205;-76
2023/05/02 02:37:09;;;;;;;0.10;0.10;;;;;;;;;;5109431;28;20269;-76
2023/05/02 02:39:41;;;;;;;0.27;0.27;;;;;;;;;;5104472;28;20213;-76
2023/05/02 02:42:11;;;;;;;0.10;0.10;;;;;;;;;;5110099;28;20437;-76
2023/05/02 02:44:43;;;;;;;0.10;0.10;;;;;;;;;;5104789;28;20415;-76
2023/05/02 02:47:10;;;;;;;0.10;0.10;;;;;;;;;;5109308;28;20239;-76
2023/05/02 02:49:44;;;;;;;0.10;0.10;;;;;;;;;;5104362;28;20222;-76
2023/05/02 02:52:14;;;;;;;0.10;0.10;;;;;;;;;;5109767;28;20238;-76
2023/05/02 02:54:45;;;;;;;0.10;0.10;;;;;;;;;;5104614;28;20432;-76
2023/05/02 02:57:15;;;;;;;0.10;0.10;;;;;;;;;;5109856;28;20283;-76
2023/05/02 02:59:45;;;;;;;0.87;0.87;;;;;;;;;;5104079;28;20231;-76
2023/05/02 03:02:12;;;;;;;0.10;0.10;;;;;;;;;;5109462;28;20235;-76
2023/05/02 03:04:40;;;;;;;0.40;0.40;;;;;;;;;;5104093;28;20211;-76
2023/05/02 03:07:07;;;;;;;0.10;0.10;;;;;;;;;;5109404;28;20265;-77
2023/05/02 03:09:41;;;;;;;0.10;0.10;;;;;;;;;;5104297;28;20227;-77
2023/05/02 03:12:08;;;;;;;0.10;0.10;;;;;;;;;;5109520;28;20332;-77
2023/05/02 03:14:35;;;;;;;0.10;0.10;;;;;;;;;;5104224;28;20228;-75
2023/05/02 03:17:01;;;;;;;0.10;0.10;;;;;;;;;;5108514;28;20265;-76
2023/05/02 03:19:27;;;;;;;0.10;0.10;;;;;;;;;;5104468;28;20224;-76
2023/05/02 03:21:54;;;;;;;0.10;0.10;;;;;;;;;;5107436;28;20366;-76
2023/05/02 03:24:20;;;;;;;0.10;0.10;;;;;;;;;;5105843;28;20247;-76
2023/05/02 03:26:48;;;;;;;0.10;0.10;;;;;;;;;;5106515;28;20239;-76
2023/05/02 03:29:15;;;;;;;0.20;0.20;;;;;;;;;;5106502;28;20368;-76
2023/05/02 03:31:41;;;;;;;0.20;0.20;;;;;;;;;;5105715;28;20272;-76
2023/05/02 03:34:07;;;;;;;0.67;0.67;;;;;;;;;;5107339;28;20212;-76
2023/05/02 03:36:34;;;;;;;0.10;0.10;;;;;;;;;;5104547;28;20239;-77
2023/05/02 03:39:00;;;;;;;0.10;0.10;;;;;;;;;;5108320;28;20243;-76
2023/05/02 03:41:27;;;;;;;0.10;0.10;;;;;;;;;;5103495;28;20238;-76
2023/05/02 03:43:54;;;;;;;0.10;0.10;;;;;;;;;;5108955;28;20473;-76
2023/05/02 03:46:21;;;;;;;0.10;0.10;;;;;;;;;;5103029;28;20238;-76
2023/05/02 03:48:47;;;;;;;0.10;0.10;;;;;;;;;;5109544;28;20233;-76
2023/05/02 03:51:14;;;;;;;0.10;0.10;;;;;;;;;;5101827;28;20262;-76
2023/05/02 03:53:40;;;;;;;0.10;0.10;;;;;;;;;;5110694;28;20205;-76
2023/05/02 03:56:07;;;;;;;0.10;0.10;;;;;;;;;;5100646;28;20302;-76
2023/05/02 03:58:35;;;;;;;0.10;0.10;;;;;;;;;;5111579;28;20239;-76
2023/05/02 04:01:02;;;;;;;0.10;0.10;;;;;;;;;;5104312;28;20238;-76
2023/05/02 04:03:29;;;;;;;0.10;0.10;;;;;;;;;;5116157;28;20247;-76
2023/05/02 04:05:55;;;;;;;0.10;0.10;;;;;;;;;;5102669;28;20242;-76
2023/05/02 04:08:22;;;;;;;0.10;0.10;;;;;;;;;;5117510;28;20391;-76
2023/05/02 04:10:50;;;;;;;0.10;0.10;;;;;;;;;;5102378;28;20245;-76
2023/05/02 04:13:16;;;;;;;0.10;0.10;;;;;;;;;;5117532;28;20195;-76
2023/05/02 04:15:44;;;;;;;0.10;0.10;;;;;;;;;;5101613;28;20263;-76
2023/05/02 04:18:12;;;;;;;0.20;0.20;;;;;;;;;;5118316;28;20271;-76
2023/05/02 04:20:39;;;;;;;0.10;0.10;;;;;;;;;;5100902;27;20240;-76
2023/05/02 04:23:05;;;;;;;0.10;0.10;;;;;;;;;;5119047;28;20210;-76
2023/05/02 04:25:31;;;;;;;0.10;0.10;;;;;;;;;;5099900;28;20234;-76
2023/05/02 04:27:58;;;;;;;0.10;0.10;;;;;;;;;;5119940;28;20243;-76
2023/05/02 04:30:24;;;;;;;0.10;0.10;;;;;;;;;;5099010;28;20200;-76
2023/05/02 04:32:51;;;;;;;0.10;0.10;;;;;;;;;;5120697;28;20215;-76
2023/05/02 04:35:18;;;;;;;0.10;0.10;;;;;;;;;;5098025;28;20246;-76
2023/05/02 04:37:45;;;;;;;0.10;0.10;;;;;;;;;;5121137;28;20287;-76
2023/05/02 04:40:12;;;;;;;29.10;12.83;;;;;;;;;;5096840;28;20257;-76
2023/05/02 04:42:38;;;;;;;0.13;0.13;;;;;;;;;;5122211;28;20235;-76
2023/05/02 04:45:05;;;;;;;0.10;0.10;;;;;;;;;;5107053;28;20202;-76
2023/05/02 04:47:31;;;;;;;0.17;0.17;;;;;;;;;;5112266;28;20240;-76
2023/05/02 04:49:58;;;;;;;0.10;0.10;;;;;;;;;;5106956;28;20200;-76
2023/05/02 04:52:26;;;;;;;0.10;0.10;;;;;;;;;;5112170;28;20239;-76
2023/05/02 04:54:52;;;;;;;0.10;0.10;;;;;;;;;;5106415;28;20276;-76
2023/05/02 04:57:18;;;;;;;0.10;0.10;;;;;;;;;;5111970;28;20415;-76
2023/05/02 04:59:45;;;;;;;0.10;0.10;;;;;;;;;;5106655;28;20212;-76
2023/05/02 05:02:12;;;;;;;0.10;0.10;;;;;;;;;;5112109;28;20256;-76
2023/05/02 05:04:38;;;;;;;0.10;0.10;;;;;;;;;;5106336;28;20210;-76
2023/05/02 05:07:04;;;;;;;0.10;0.10;;;;;;;;;;5111363;28;20265;-76
2023/05/02 05:09:32;;;;;;;0.10;0.10;;;;;;;;;;5106389;28;20387;-76
2023/05/02 05:11:59;;;;;;;0.10;0.10;;;;;;;;;;5110616;28;20262;-76
2023/05/02 05:14:25;;;;;;;0.10;0.10;;;;;;;;;;5107602;28;20396;-76
2023/05/02 05:16:51;;;;;;;0.10;0.10;;;;;;;;;;5109624;28;20440;-76
2023/05/02 05:19:18;;;;;;;0.93;0.93;;;;;;;;;;5108458;28;20204;-77
2023/05/02 05:21:44;;;;;;;0.10;0.10;;;;;;;;;;5108373;28;20498;-76
2023/05/02 05:24:11;;;;;;;0.10;0.10;;;;;;;;;;5109234;28;20443;-76
2023/05/02 05:26:38;;;;;;;0.10;0.10;;;;;;;;;;5107257;28;20479;-76
2023/05/02 05:29:05;;;;;;;0.10;0.10;;;;;;;;;;5110118;28;20244;-76
2023/05/02 05:31:31;;;;;;;0.10;0.10;;;;;;;;;;5106300;28;20251;-76
2023/05/02 05:33:57;;;;;;;0.10;0.10;;;;;;;;;;5110893;28;20270;-76
2023/05/02 05:36:24;;;;;;;0.10;0.10;;;;;;;;;;5105317;28;20295;-76
2023/05/02 05:38:51;;;;;;;0.10;0.10;;;;;;;;;;5111223;28;20276;-76
2023/05/02 05:41:17;;;;;;;0.10;0.10;;;;;;;;;;5104534;28;20238;-76
2023/05/02 05:43:45;;;;;;;0.47;0.47;;;;;;;;;;5112286;28;20399;-77
2023/05/02 05:46:12;;;;;;;0.10;0.10;;;;;;;;;;5103867;28;20238;-75
2023/05/02 05:48:38;;;;;;;0.10;0.10;;;;;;;;;;5112952;28;20398;-76
2023/05/02 05:51:05;;;;;;;0.10;0.10;;;;;;;;;;5102657;28;20262;-76
2023/05/02 05:53:31;;;;;;;0.10;0.10;;;;;;;;;;5113784;28;20270;-76
2023/05/02 05:55:58;;;;;;;0.10;0.10;;;;;;;;;;5101614;28;20307;-76
2023/05/02 05:58:24;;;;;;;0.17;0.17;;;;;;;;;;5114747;28;20225;-76
2023/05/02 06:00:52;;;;;;;0.10;0.10;;;;;;;;;;5100418;28;20241;-76
2023/05/02 06:03:18;;;;;;;0.47;0.47;;;;;;;;;;5115549;28;20218;-76
2023/05/02 06:05:45;;;;;;;0.17;0.17;;;;;;;;;;5099980;28;20314;-77
2023/05/02 06:08:11;;;;;;;0.10;0.10;;;;;;;;;;5116268;28;20210;-76
2023/05/02 06:10:37;;;;;;;0.10;0.10;;;;;;;;;;5099100;28;20237;-77
2023/05/02 06:13:04;;;;;;;0.10;0.10;;;;;;;;;;5116843;28;20245;-77
2023/05/02 06:15:33;;;;;;;0.10;0.10;;;;;;;;;;5097586;28;20512;-76
2023/05/02 06:18:00;;;;;;;0.10;0.10;;;;;;;;;;5117400;28;20204;-76
2023/05/02 06:20:27;;;;;;;0.10;0.10;;;;;;;;;;5097297;28;20463;-76
2023/05/02 06:22:53;;;;;;;0.13;0.13;;;;;;;;;;5117587;28;20192;-76
2023/05/02 06:25:19;;;;;;;0.10;0.10;;;;;;;;;;5096314;28;20207;-76
2023/05/02 06:27:46;;;;;;;0.50;0.50;;;;;;;;;;5119264;28;20259;-77
2023/05/02 06:30:13;;;;;;;0.10;0.10;;;;;;;;;;5094840;28;20244;-76
2023/05/02 06:32:41;;;;;;;0.10;0.10;;;;;;;;;;5119785;28;20261;-76
2023/05/02 06:35:09;;;;;;;0.10;0.10;;;;;;;;;;5104979;28;20372;-76
2023/05/02 06:37:36;;;;;;;0.10;0.10;;;;;;;;;;5092969;28;20447;-76
2023/05/02 06:40:02;;;;;;;0.20;0.20;;;;;;;;;;5104451;28;20245;-76
2023/05/02 06:42:29;;;;;;;0.10;0.10;;;;;;;;;;5110110;28;20577;-72
2023/05/02 06:44:58;;;;;;;0.10;0.10;;;;;;;;;;5104899;28;20273;-71
2023/05/02 06:47:25;;;;;;;0.10;0.10;;;;;;;;;;5109996;28;20326;-76
2023/05/02 06:49:51;;;;;;;0.10;0.10;;;;;;;;;;5104842;28;20198;-81
2023/05/02 06:52:19;;;;;;;0.10;0.10;;;;;;;;;;5110010;28;20522;-77
2023/05/02 06:54:45;;;;;;;0.10;0.10;;;;;;;;;;5104575;28;20253;-78
2023/05/02 06:57:12;;;;;;;0.10;0.10;;;;;;;;;;5109831;28;20337;-78
2023/05/02 06:59:38;;;;;;;0.13;0.13;;;;;;;;;;5104509;28;20274;-77
2023/05/02 07:02:05;;;;;;;0.10;0.10;;;;;;;;;;5109310;28;20246;-76
2023/05/02 07:04:31;;;;;;;0.10;0.10;;;;;;;;;;5104907;28;20357;-76
2023/05/02 07:06:58;;;;;;;0.10;0.10;;;;;;;;;;5108354;28;20239;-79
2023/05/02 07:09:26;;;;;;;0.10;0.10;;;;;;;;;;5105482;28;20213;-77
2023/05/02 07:11:52;;;;;;;0.10;0.10;;;;;;;;;;5107267;28;20268;-76
2023/05/02 07:14:18;;;;;;;1.80;1.40;;;;;;;;;;5105936;28;20200;-73
2023/05/02 07:16:47;;;;;;;3.23;3.03;;;;;;;;;;5106348;28;20249;-76
2023/05/02 07:19:14;;;;;;;0.10;0.10;;;;;;;;;;5106970;28;20211;-77
2023/05/02 07:21:40;;;;;;;0.10;0.10;;;;;;;;;;5105839;28;20414;-77
2023/05/02 07:24:06;;;;;;;0.10;0.10;;;;;;;;;;5107505;28;20209;-77
2023/05/02 07:26:34;;;;;;;0.10;0.10;;;;;;;;;;5104808;28;20257;-77
2023/05/02 07:29:00;;;;;;;0.50;0.50;;;;;;;;;;5108263;28;20202;-77
2023/05/02 07:31:27;;;;;;;3.03;2.20;;;;;;;;;;5104025;28;20591;-77
2023/05/02 07:33:53;;;;;;;0.10;0.10;;;;;;;;;;5108924;28;20198;-77
2023/05/02 07:36:20;;;;;;;0.10;0.10;;;;;;;;;;5103029;28;20308;-77
2023/05/02 07:38:46;;;;;;;0.10;0.10;;;;;;;;;;5109888;28;20513;-76
2023/05/02 07:41:13;;;;;;;0.10;0.10;;;;;;;;;;5101997;28;20268;-77
2023/05/02 07:43:41;;;;;;;0.10;0.10;;;;;;;;;;5110687;28;20429;-78
2023/05/02 07:46:07;;;;;;;0.87;0.87;;;;;;;;;;5101280;28;20415;-78
2023/05/02 07:48:34;;;;;;;0.10;0.10;;;;;;;;;;5111682;28;20237;-77
2023/05/02 07:51:06;;;;;;;0.10;0.10;;;;;;;;;;5100190;28;20236;-77
2023/05/02 07:53:32;;;;;;;0.20;0.20;;;;;;;;;;5111915;28;20269;-77
2023/05/02 07:55:59;;;;;;;2.43;2.33;;;;;;;;;;5100036;28;20249;-77
2023/05/02 07:58:25;;;;;;;0.10;0.10;;;;;;;;;;5112488;28;20426;-76
2023/05/02 08:00:53;;;;;;;0.10;0.10;;;;;;;;;;5098918;28;20264;-77
2023/05/02 08:03:19;;;;;;;0.10;0.10;;;;;;;;;;5113551;28;20183;-78
2023/05/02 08:05:45;;;;;;;1.80;1.80;;;;;;;;;;5098405;28;20241;-77
2023/05/02 08:08:13;;;;;;;0.10;0.10;;;;;;;;;;5114202;28;20248;-73
2023/05/02 08:10:39;;;;;;;0.10;0.10;;;;;;;;;;5097393;28;20252;-78
2023/05/02 08:13:06;;;;;;;0.10;0.10;;;;;;;;;;5114943;28;20212;-76
2023/05/02 08:15:32;;;;;;;0.60;0.60;;;;;;;;;;5096209;28;20308;-77
2023/05/02 08:18:12;;;;;;;0.00;0.00;;;;;;;;;;5115946;28;20193;-76
2023/05/02 08:20:38;;;;;;;0.10;0.10;;;;;;;;;;5096941;28;20301;-76
2023/05/02 08:23:04;;;;;;;0.10;0.10;;;;;;;;;;5115313;28;20205;-75
2023/05/02 08:25:31;;;;;;;0.10;0.10;;;;;;;;;;5096365;28;20268;-76
2023/05/02 08:27:57;;;;;;;0.10;0.10;;;;;;;;;;5116325;28;20357;-76
2023/05/02 08:30:24;;;;;;;0.10;0.10;;;;;;;;;;5095023;28;20250;-76
2023/05/02 08:32:56;;;;;;;0.10;0.10;;;;;;;;;;5116776;28;20229;-75
2023/05/02 08:35:24;;;;;;;0.10;0.10;;;;;;;;;;5094778;28;20229;-76
2023/05/02 08:37:50;;;;;;;0.10;0.10;;;;;;;;;;5116825;28;20237;-75
2023/05/02 08:40:17;;;;;;;0.10;0.10;;;;;;;;;;5094270;28;20399;-76
2023/05/02 08:42:44;;;;;;;0.10;0.10;;;;;;;;;;5117803;28;20258;-76
2023/05/02 08:45:12;;;;;;;0.10;0.10;;;;;;;;;;5094181;28;20199;-75
2023/05/02 08:47:40;;;;;;;0.10;0.10;;;;;;;;;;5121970;28;20227;-75
2023/05/02 08:50:08;;;;;;;0.10;0.10;;;;;;;;;;5106756;28;20203;-75
2023/05/02 08:52:35;;;;;;;0.10;0.10;;;;;;;;;;5095055;28;20227;-75
2023/05/02 08:55:02;;;;;;;0.10;0.10;;;;;;;;;;5106740;28;20240;-75
2023/05/02 08:57:29;;;;;;;0.00;0.00;;;;;;;;;;5111987;28;20265;-75
2023/05/02 08:59:56;;;;;;;0.10;0.10;;;;;;;;;;5106841;28;20213;-76
2023/05/02 09:02:26;;;;;;;0.10;0.10;;;;;;;;;;5111980;28;20254;-75
2023/05/02 09:04:54;;;;;;;0.10;0.10;;;;;;;;;;5107015;28;20221;-75
2023/05/02 09:07:21;;;;;;;0.63;0.63;;;;;;;;;;5111956;28;20571;-75
2023/05/02 09:09:51;;;;;;;0.10;0.10;;;;;;;;;;5106770;28;20371;-76
2023/05/02 09:12:17;;;;;;;0.00;0.00;;;;;;;;;;5111720;28;20441;-78
2023/05/02 09:14:44;;;;;;;0.07;0.07;;;;;;;;;;5106740;28;20433;-75
2023/05/02 09:17:10;;;;;;;0.10;0.10;;;;;;;;;;5111638;28;20242;-74
2023/05/02 09:19:37;;;;;;;0.10;0.10;;;;;;;;;;5106583;28;20196;-75
2023/05/02 09:22:03;;;;;;;0.63;0.63;;;;;;;;;;5111055;28;20480;-75
2023/05/02 09:24:30;;;;;;;0.43;0.43;;;;;;;;;;5106809;28;20212;-74
2023/05/02 09:26:59;;;;;;;0.10;0.10;;;;;;;;;;5109900;28;20258;-75
2023/05/02 09:29:29;;;;;;;0.10;0.10;;;;;;;;;;5107056;28;20198;-75
2023/05/02 09:31:56;;;;;;;0.10;0.10;;;;;;;;;;5109521;28;20486;-76
2023/05/02 09:34:22;;;;;;;0.30;0.30;;;;;;;;;;5107218;28;20245;-75
2023/05/02 09:36:50;;;;;;;0.10;0.10;;;;;;;;;;5108545;28;20264;-75
2023/05/02 09:39:18;;;;;;;1.53;1.50;;;;;;;;;;5107773;28;20207;-74
2023/05/02 09:41:45;;;;;;;0.63;0.63;;;;;;;;;;5108088;28;20442;-75
2023/05/02 09:44:15;;;;;;;0.10;0.10;;;;;;;;;;5108462;28;20220;-74
2023/05/02 09:46:42;;;;;;;0.10;0.10;;;;;;;;;;5107385;28;20253;-74
2023/05/02 09:49:09;;;;;;;1.27;1.27;;;;;;;;;;5108932;28;20382;-74
2023/05/02 09:51:36;;;;;;;0.10;0.10;;;;;;;;;;5106768;28;20436;-75
2023/05/02 09:54:03;;;;;;;0.10;0.10;;;;;;;;;;5109436;28;20211;-75
2023/05/02 09:56:30;;;;;;;0.00;0.00;;;;;;;;;;5105864;28;20333;-75
2023/05/02 09:59:13;;;;;;;0.10;0.10;;;;;;;;;;5110100;28;20425;-75
2023/05/02 10:01:41;;;;;;;0.10;0.10;;;;;;;;;;5107120;28;20235;-75
2023/05/02 10:04:11;;;;;;;0.10;0.10;;;;;;;;;;5108573;28;20340;-75
2023/05/02 10:06:37;;;;;;;0.70;0.70;;;;;;;;;;5106586;28;20248;-76
2023/05/02 10:09:03;;;;;;;0.10;0.10;;;;;;;;;;5109254;28;20212;-75
2023/05/02 10:11:31;;;;;;;0.10;0.10;;;;;;;;;;5105463;28;20238;-76
2023/05/02 10:13:58;;;;;;;0.10;0.10;;;;;;;;;;5109782;28;20206;-75
2023/05/02 10:16:28;;;;;;;0.10;0.10;;;;;;;;;;5104964;28;20608;-75
2023/05/02 10:18:58;;;;;;;0.30;0.30;;;;;;;;;;5110193;28;20197;-75
2023/05/02 10:21:27;;;;;;;0.10;0.10;;;;;;;;;;5104555;28;20304;-76
2023/05/02 10:23:54;;;;;;;0.30;0.30;;;;;;;;;;5110169;28;20244;-76
2023/05/02 10:26:21;;;;;;;0.20;0.20;;;;;;;;;;5103944;28;20237;-76
2023/05/02 10:28:48;;;;;;;0.10;0.10;;;;;;;;;;5110803;28;20201;-76
2023/05/02 10:31:14;;;;;;;0.10;0.10;;;;;;;;;;5102978;28;20253;-75
2023/05/02 10:33:42;;;;;;;0.10;0.10;;;;;;;;;;5111888;28;20415;-75
2023/05/02 10:36:11;;;;;;;0.10;0.10;;;;;;;;;;5102333;28;20283;-77
2023/05/02 10:38:38;;;;;;;0.10;0.10;;;;;;;;;;5111930;28;20258;-80
2023/05/02 10:41:06;;;;;;;0.10;0.10;;;;;;;;;;5101739;28;20239;-80
2023/05/02 10:43:34;;;;;;;0.20;0.20;;;;;;;;;;5112744;28;20201;-80
2023/05/02 10:46:02;;;;;;;0.10;0.10;;;;;;;;;;5101115;28;20241;-80
2023/05/02 10:48:28;;;;;;;0.10;0.10;;;;;;;;;;5112936;28;20212;-79
2023/05/02 10:50:57;;;;;;;0.20;0.20;;;;;;;;;;5100117;28;20305;-80
2023/05/02 10:53:24;;;;;;;0.10;0.10;;;;;;;;;;5113943;28;20295;-72
2023/05/02 10:56:10;;;;;;;0.00;0.00;;;;;;;;;;5099615;28;20248;-78
2023/05/02 10:58:37;;;;;;;0.10;0.10;;;;;;;;;;5112145;28;20311;-77
2023/05/02 11:01:22;;;;;;;0.30;0.30;;;;;;;;;;5101040;28;20275;-80
2023/05/02 11:03:59;;;;;;;0.10;0.10;;;;;;;;;;5110475;28;20203;-79
2023/05/02 11:06:28;;;;;;;0.10;0.10;;;;;;;;;;5103971;28;20311;-78
2023/05/02 11:09:25;;;;;;;1.40;0.57;;;;;;;;;;5108883;28;20220;-78
2023/05/02 11:11:53;;;;;;;0.10;0.10;;;;;;;;;;5107134;28;20471;-78
2023/05/02 11:14:34;;;;;;;0.10;0.10;;;;;;;;;;5105766;28;20204;-78
2023/05/02 11:17:10;;;;;;;0.10;0.10;;;;;;;;;;5108330;28;20293;-78
2023/05/02 11:19:54;;;;;;;0.60;0.60;;;;;;;;;;5103877;28;20193;-77
2023/05/02 11:22:36;;;;;;;0.20;0.20;;;;;;;;;;5109188;28;20399;-79
2023/05/02 11:25:04;;;;;;;0.10;0.10;;;;;;;;;;5104055;28;20206;-79
2023/05/02 11:27:37;;;;;;;0.10;0.10;;;;;;;;;;5108961;28;20237;-79
2023/05/02 11:30:05;;;;;;;0.10;0.10;;;;;;;;;;5103807;28;20211;-79
2023/05/02 11:32:52;;;;;;;0.10;0.10;;;;;;;;;;5109010;28;20299;-79
2023/05/02 11:35:19;;;;;;;0.30;0.30;;;;;;;;;;5094701;28;20203;-79
2023/05/02 11:37:53;;;;;;;0.10;0.10;;;;;;;;;;5117727;28;20567;-79
2023/05/02 11:40:19;;;;;;;0.10;0.10;;;;;;;;;;5094953;28;20243;-78
2023/05/02 11:42:46;;;;;;;0.10;0.10;;;;;;;;;;5117949;28;20199;-79
2023/05/02 11:45:12;;;;;;;0.10;0.10;;;;;;;;;;5093722;28;20205;-79
2023/05/02 11:47:40;;;;;;;0.10;0.10;;;;;;;;;;5102474;28;20208;-79
2023/05/02 11:50:08;;;;;;;0.10;0.10;;;;;;;;;;5103439;28;20520;-78
2023/05/02 11:52:37;;;;;;;0.10;0.10;;;;;;;;;;5091912;28;20484;-78
2023/05/02 11:55:05;;;;;;;0.10;0.10;;;;;;;;;;5103539;28;20196;-79
2023/05/02 11:57:33;;;;;;;6.22;5.68;;;;;;;;;;5108883;28;20438;-78
2023/05/02 12:00:00;;;;;;;0.50;0.50;;;;;;;;;;5103794;28;20251;-78
2023/05/02 12:02:35;;;;;;;0.00;0.00;;;;;;;;;;5108909;28;20496;-78
2023/05/02 12:05:02;;;;;;;0.10;0.10;;;;;;;;;;5103529;28;20224;-79
2023/05/02 12:07:34;;;;;;;0.10;0.10;;;;;;;;;;5108888;28;20239;-79
2023/05/02 12:10:01;;;;;;;0.10;0.10;;;;;;;;;;5103337;28;20203;-79
2023/05/02 12:12:28;;;;;;;0.10;0.10;;;;;;;;;;5108858;28;20434;-79
2023/05/02 12:14:55;;;;;;;0.10;0.10;;;;;;;;;;5103622;28;20200;-79
2023/05/02 12:17:21;;;;;;;6.73;6.13;;;;;;;;;;5108733;28;20254;-79
2023/05/02 12:19:48;;;;;;;0.10;0.10;;;;;;;;;;5104372;28;20425;-79
2023/05/02 12:22:15;;;;;;;0.10;0.10;;;;;;;;;;5112784;28;20299;-79
2023/05/02 12:24:42;;;;;;;0.67;0.67;;;;;;;;;;5107604;28;20399;-78
2023/05/02 12:27:09;;;;;;;0.10;0.10;;;;;;;;;;5112555;28;20243;-79
2023/05/02 12:29:40;;;;;;;0.47;0.47;;;;;;;;;;5107429;28;20204;-80
2023/05/02 12:32:07;;;;;;;0.10;0.10;;;;;;;;;;5112285;28;20270;-79
2023/05/02 12:34:33;;;;;;;0.30;0.30;;;;;;;;;;5107347;28;20224;-79
2023/05/02 12:37:00;;;;;;;0.10;0.10;;;;;;;;;;5111216;28;20457;-79
2023/05/02 12:39:34;;;;;;;0.10;0.10;;;;;;;;;;5108135;28;20247;-80
2023/05/02 12:42:08;;;;;;;0.07;0.07;;;;;;;;;;5111462;28;20331;-79
2023/05/02 12:44:38;;;;;;;0.10;0.10;;;;;;;;;;5107372;28;20444;-79
2023/05/02 12:47:06;;;;;;;0.10;0.10;;;;;;;;;;5111861;28;20240;-79
2023/05/02 12:49:33;;;;;;;1.20;1.03;;;;;;;;;;5107138;28;20208;-79
2023/05/02 12:52:00;;;;;;;0.10;0.10;;;;;;;;;;5111079;28;20261;-79
2023/05/02 12:54:26;;;;;;;0.10;0.10;;;;;;;;;;5107833;28;20211;-79
2023/05/02 12:56:53;;;;;;;0.10;0.10;;;;;;;;;;5109977;28;20411;-79
2023/05/02 12:59:26;;;;;;;0.10;0.10;;;;;;;;;;5108642;28;20433;-79
2023/05/02 13:01:54;;;;;;;0.10;0.10;;;;;;;;;;5109689;28;20579;-77
2023/05/02 13:04:22;;;;;;;0.10;0.10;;;;;;;;;;5108639;28;20206;-78
2023/05/02 13:06:49;;;;;;;0.10;0.10;;;;;;;;;;5109220;28;20289;-78
2023/05/02 13:09:17;;;;;;;0.10;0.10;;;;;;;;;;5108849;28;20213;-78
2023/05/02 13:11:44;;;;;;;0.30;0.30;;;;;;;;;;5098058;28;20472;-78
2023/05/02 13:14:11;;;;;;;0.10;0.10;;;;;;;;;;5109308;28;20226;-79
2023/05/02 13:16:37;;;;;;;0.97;0.97;;;;;;;;;;5108005;28;20319;-77
2023/05/02 13:19:04;;;;;;;0.33;0.33;;;;;;;;;;5110487;28;20205;-77
2023/05/02 13:21:32;;;;;;;0.10;0.10;;;;;;;;;;5106591;28;20290;-77
2023/05/02 13:23:58;;;;;;;0.10;0.10;;;;;;;;;;5111104;28;20204;-77
2023/05/02 13:26:25;;;;;;;0.10;0.10;;;;;;;;;;5105931;28;20256;-77
2023/05/02 13:28:51;;;;;;;0.10;0.10;;;;;;;;;;5111682;28;20272;-76
2023/05/02 13:31:18;;;;;;;0.10;0.10;;;;;;;;;;5104272;28;20264;-76
2023/05/02 13:33:44;;;;;;;0.10;0.10;;;;;;;;;;5112750;28;20268;-76
2023/05/02 13:36:10;;;;;;;0.43;0.43;;;;;;;;;;5103994;28;20460;-74
2023/05/02 13:38:38;;;;;;;0.10;0.10;;;;;;;;;;5113427;28;20283;-79
2023/05/02 13:41:05;;;;;;;0.10;0.10;;;;;;;;;;5102803;28;20449;-79
2023/05/02 13:43:31;;;;;;;0.20;0.20;;;;;;;;;;5113899;28;20211;-76
2023/05/02 13:45:59;;;;;;;0.40;0.40;;;;;;;;;;5101806;28;20242;-76
2023/05/02 13:48:25;;;;;;;0.10;0.10;;;;;;;;;;5114730;28;20268;-76
2023/05/02 13:50:51;;;;;;;0.10;0.10;;;;;;;;;;5100928;28;20234;-77
2023/05/02 13:53:18;;;;;;;0.53;0.30;;;;;;;;;;5115512;28;20406;-76
2023/05/02 13:55:46;;;;;;;0.10;0.10;;;;;;;;;;5099877;28;20253;-77
2023/05/02 13:58:12;;;;;;;0.40;0.40;;;;;;;;;;5116243;28;20247;-76
2023/05/02 14:00:39;;;;;;;0.10;0.10;;;;;;;;;;5098983;28;20240;-76
2023/05/02 14:03:05;;;;;;;1.70;1.43;;;;;;;;;;5117135;28;20202;-77
2023/05/02 14:05:31;;;;;;;0.10;0.10;;;;;;;;;;5097998;28;20465;-77
2023/05/02 14:07:58;;;;;;;0.20;0.20;;;;;;;;;;5117877;28;20206;-76
2023/05/02 14:10:24;;;;;;;0.30;0.30;;;;;;;;;;5096885;28;20236;-77
2023/05/02 14:12:52;;;;;;;1.03;1.03;;;;;;;;;;5118814;28;20542;-77
2023/05/02 14:15:19;;;;;;;0.10;0.10;;;;;;;;;;5095976;28;20210;-76
2023/05/02 14:17:46;;;;;;;0.63;0.20;;;;;;;;;;5119125;28;20200;-76
2023/05/02 14:20:12;;;;;;;0.10;0.10;;;;;;;;;;5094940;28;20204;-77
2023/05/02 14:22:38;;;;;;;0.10;0.10;;;;;;;;;;5119985;28;20298;-77
2023/05/02 14:25:05;;;;;;;0.97;0.97;;;;;;;;;;5104758;28;20205;-77
2023/05/02 14:27:32;;;;;;;0.10;0.10;;;;;;;;;;5110125;28;20241;-77
2023/05/02 14:29:59;;;;;;;0.10;0.10;;;;;;;;;;5104840;28;20205;-77
2023/05/02 14:32:26;;;;;;;0.10;0.10;;;;;;;;;;5110207;28;20342;-77
2023/05/02 14:34:52;;;;;;;0.10;0.10;;;;;;;;;;5104555;28;20239;-77
2023/05/02 14:37:19;;;;;;;0.10;0.10;;;;;;;;;;5110023;28;20253;-77
2023/05/02 14:39:47;;;;;;;0.10;0.10;;;;;;;;;;5105109;28;20203;-77
2023/05/02 14:42:14;;;;;;;0.10;0.10;;;;;;;;;;5109719;28;20239;-77
2023/05/02 14:44:41;;;;;;;0.10;0.10;;;;;;;;;;5104653;28;20273;-77
2023/05/02 14:47:08;;;;;;;0.10;0.10;;;;;;;;;;5109863;28;20270;-77